createdAt,value
2019-02-12T00:04:42.496Z,1.40
2019-02-12T00:09:47.848Z,1.40
2019-02-12T00:14:52.161Z,1.50
2019-02-12T00:19:59.735Z,1.50
2019-02-12T00:25:04.924Z,1.50
2019-02-12T00:30:10.046Z,1.50
2019-02-12T00:35:14.618Z,1.60
2019-02-12T00:40:20.418Z,1.60
2019-02-12T00:45:24.728Z,1.70
2019-02-12T00:50:30.810Z,1.80
2019-02-12T00:55:37.745Z,1.90
2019-02-12T01:00:41.927Z,2.00
2019-02-12T01:05:46.221Z,2.10
2019-02-12T01:10:50.499Z,2.20
2019-02-12T01:15:54.650Z,2.30
2019-02-12T01:20:59.440Z,2.40
2019-02-12T01:26:06.374Z,2.50
2019-02-12T01:31:10.725Z,2.60
2019-02-12T01:36:14.935Z,2.60
2019-02-12T01:41:19.286Z,2.70
2019-02-12T01:46:23.587Z,2.80
2019-02-12T01:51:34.982Z,2.90
2019-02-12T01:56:33.817Z,2.90
2019-02-12T02:01:38.167Z,3.00
2019-02-12T02:06:42.387Z,3.10
2019-02-12T02:11:46.667Z,3.10
2019-02-12T02:16:51.140Z,3.20
2019-02-12T02:21:57.887Z,3.30
2019-02-12T02:27:01.707Z,3.30
2019-02-12T02:32:06.062Z,3.40
2019-02-12T02:37:10.260Z,3.40
2019-02-12T02:42:14.455Z,3.50
2019-02-12T02:47:18.768Z,3.60
2019-02-12T02:52:22.955Z,3.70
2019-02-12T02:57:27.231Z,3.70
2019-02-12T03:02:31.743Z,3.80
2019-02-12T03:07:37.584Z,3.80
2019-02-12T03:12:41.849Z,3.80
2019-02-12T03:17:46.080Z,3.60
2019-02-12T03:22:53.047Z,3.70
2019-02-12T03:27:59.277Z,3.80
2019-02-12T03:33:03.466Z,3.80
2019-02-12T03:38:07.769Z,3.80
2019-02-12T03:43:12.027Z,3.80
2019-02-12T03:48:16.502Z,3.90
2019-02-12T03:53:20.747Z,3.80
2019-02-12T03:58:25.155Z,3.80
2019-02-12T04:03:30.315Z,3.80
2019-02-12T04:08:34.431Z,3.70
2019-02-12T04:13:38.893Z,3.70
2019-02-12T04:18:43.391Z,3.70
2019-02-12T04:23:48.743Z,3.70
2019-02-12T04:28:53.222Z,3.80
2019-02-12T04:33:57.460Z,3.80
2019-02-12T04:39:01.886Z,3.90
2019-02-12T04:44:06.339Z,3.90
2019-02-12T04:49:13.616Z,3.90
2019-02-12T04:54:20.061Z,3.90
2019-02-12T04:59:24.576Z,3.90
2019-02-12T05:04:28.782Z,3.90
2019-02-12T05:09:34.149Z,3.90
2019-02-12T05:14:38.323Z,4.10
2019-02-12T05:19:48.551Z,4.10
2019-02-12T05:24:48.331Z,4.00
2019-02-12T11:34:20.279Z,7.50
2019-02-12T11:39:24.671Z,7.50
2019-02-12T11:44:30.421Z,7.60
2019-02-12T11:49:34.794Z,7.90
2019-02-12T11:54:43.803Z,7.80
2019-02-12T11:59:45.035Z,8.00
2019-02-12T12:04:49.557Z,7.90
2019-02-12T12:09:53.750Z,7.60
2019-02-12T12:15:01.981Z,7.60
2019-02-12T12:20:06.860Z,7.90
2019-02-12T12:25:11.137Z,8.10
2019-02-12T12:30:16.113Z,8.30
2019-02-12T12:35:20.323Z,8.30
2019-02-12T12:40:24.646Z,8.40
2019-02-12T12:45:28.899Z,8.40
2019-02-12T12:50:33.470Z,8.30
2019-02-12T12:56:04.920Z,8.50
2019-02-12T13:01:10.516Z,9.00
2019-02-12T13:06:17.227Z,9.10
2019-02-12T13:11:29.644Z,9.00
2019-02-12T13:16:37.037Z,9.10
2019-02-12T13:21:55.271Z,9.40
2019-02-12T13:27:02.265Z,9.60
2019-02-12T13:32:30.196Z,10.00
2019-02-12T13:43:48.098Z,9.00
2019-02-12T13:49:03.274Z,9.20
2019-02-12T13:54:28.594Z,9.20
2019-02-12T14:00:00.732Z,8.80
2019-02-12T14:05:06.035Z,9.00
2019-02-12T14:16:01.568Z,8.80
2019-02-12T14:21:06.263Z,8.90
2019-02-12T14:26:12.402Z,9.00
2019-02-12T14:31:16.748Z,9.00
2019-02-12T14:36:21.171Z,8.60
2019-02-12T14:41:25.646Z,8.70
2019-02-12T14:46:49.111Z,8.80
2019-02-12T14:52:04.656Z,8.80
2019-02-12T14:57:38.026Z,9.00
2019-02-12T15:02:50.076Z,9.10
2019-02-12T15:08:06.841Z,9.20
2019-02-12T15:13:25.587Z,8.70
2019-02-12T15:18:42.381Z,8.30
2019-02-12T15:24:03.650Z,8.20
2019-02-12T15:29:21.336Z,8.40
2019-02-12T15:34:46.407Z,8.40
2019-02-12T15:39:55.667Z,8.40
2019-02-12T15:45:06.002Z,8.30
2019-02-12T15:50:39.315Z,8.40
2019-02-12T15:55:51.386Z,8.20
2019-02-12T16:01:35.518Z,8.10
2019-02-12T16:06:44.607Z,8.00
2019-02-12T16:11:50.439Z,7.90
2019-02-12T16:16:55.023Z,7.80
2019-02-12T16:21:59.481Z,7.80
2019-02-12T16:27:10.765Z,7.70
2019-02-12T16:37:33.873Z,7.50
2019-02-12T16:42:41.436Z,7.30
2019-02-12T16:55:18.908Z,7.10
2019-02-12T17:00:20.640Z,6.70
2019-02-12T17:05:25.122Z,6.50
2019-02-12T17:10:29.714Z,6.40
2019-02-12T17:15:34.208Z,6.20
2019-02-12T17:20:41.685Z,6.10
2019-02-12T17:25:51.630Z,5.90
2019-02-12T17:30:56.489Z,5.80
2019-02-12T17:36:09.455Z,5.70
2019-02-12T17:41:14.022Z,5.70
2019-02-12T23:58:36.085Z,1.80
